createdAt,value
2022-08-23T00:01:20.393Z,23.70
2022-08-23T00:03:49.524Z,23.60
2022-08-23T00:06:18.489Z,23.60
2022-08-23T00:08:49.031Z,23.60
2022-08-23T00:11:29.297Z,23.60
2022-08-23T00:13:59.106Z,23.50
2022-08-23T00:16:27.212Z,23.50
2022-08-23T00:18:55.142Z,23.40
2022-08-23T00:21:23.293Z,23.40
2022-08-23T00:23:52.694Z,23.40
2022-08-23T00:26:20.758Z,23.30
2022-08-23T00:28:49.238Z,23.30
2022-08-23T00:31:17.597Z,23.30
2022-08-23T00:33:45.511Z,23.30
2022-08-23T00:36:13.489Z,23.30
2022-08-23T00:38:42.072Z,23.30
2022-08-23T00:41:11.421Z,23.30
2022-08-23T00:44:00.514Z,23.30
2022-08-23T00:47:00.529Z,23.30
2022-08-23T00:49:29.653Z,23.30
2022-08-23T00:52:01.081Z,23.20
2022-08-23T00:54:31.162Z,23.20
2022-08-23T00:57:05.411Z,23.20
2022-08-23T00:59:33.758Z,23.20
2022-08-23T01:02:02.563Z,23.20
2022-08-23T01:04:34.299Z,23.20
2022-08-23T01:07:08.085Z,23.10
2022-08-23T01:09:37.311Z,23.10
2022-08-23T01:12:10.452Z,23.10
2022-08-23T01:14:42.350Z,23.10
2022-08-23T01:17:19.875Z,23.00
2022-08-23T01:19:51.984Z,23.00
2022-08-23T01:22:26.424Z,23.00
2022-08-23T01:25:07.451Z,23.00
2022-08-23T01:27:37.389Z,23.00
2022-08-23T01:30:07.347Z,23.00
2022-08-23T01:32:40.577Z,23.00
2022-08-23T01:35:09.268Z,23.00
2022-08-23T01:37:37.666Z,22.90
2022-08-23T01:40:08.392Z,22.90
2022-08-23T01:42:36.407Z,22.90
2022-08-23T01:45:05.498Z,22.90
2022-08-23T01:47:33.432Z,22.90
2022-08-23T01:50:01.401Z,22.90
2022-08-23T01:52:29.987Z,22.80
2022-08-23T01:54:58.555Z,22.80
2022-08-23T01:57:28.570Z,22.80
2022-08-23T01:59:56.804Z,22.80
2022-08-23T02:02:25.489Z,22.80
2022-08-23T02:04:53.589Z,22.80
2022-08-23T02:07:21.872Z,22.70
2022-08-23T02:09:49.792Z,22.70
2022-08-23T02:12:17.729Z,22.70
2022-08-23T02:14:47.168Z,22.70
2022-08-23T02:17:15.986Z,22.70
2022-08-23T02:19:44.351Z,22.60
2022-08-23T02:22:13.024Z,22.60
2022-08-23T02:24:42.565Z,22.60
2022-08-23T02:27:10.636Z,22.50
2022-08-23T02:29:39.818Z,22.50
2022-08-23T02:32:10.477Z,22.50
2022-08-23T02:34:40.759Z,22.50
2022-08-23T02:37:10.332Z,22.50
2022-08-23T02:39:38.940Z,22.40
2022-08-23T02:42:08.130Z,22.40
2022-08-23T02:44:40.074Z,22.40
2022-08-23T02:47:09.387Z,22.40
2022-08-23T02:49:37.813Z,22.40
2022-08-23T02:52:06.666Z,22.40
2022-08-23T02:54:34.852Z,22.30
2022-08-23T02:57:03.238Z,22.30
2022-08-23T02:59:31.522Z,22.30
2022-08-23T03:01:59.614Z,22.30
2022-08-23T03:04:29.226Z,22.30
2022-08-23T03:06:57.204Z,22.30
2022-08-23T03:09:25.244Z,22.30
2022-08-23T03:11:53.223Z,22.20
2022-08-23T03:14:21.215Z,22.20
2022-08-23T03:16:49.915Z,22.20
2022-08-23T03:19:17.858Z,22.20
2022-08-23T03:21:47.222Z,22.10
2022-08-23T03:24:15.732Z,22.00
2022-08-23T03:26:45.444Z,22.00
2022-08-23T03:29:13.606Z,22.00
2022-08-23T03:31:42.342Z,21.90
2022-08-23T03:34:10.829Z,21.90
2022-08-23T03:36:38.803Z,21.90
2022-08-23T03:39:08.265Z,21.90
2022-08-23T03:41:36.223Z,21.90
2022-08-23T03:44:04.802Z,21.90
2022-08-23T03:46:34.152Z,21.80
2022-08-23T03:49:03.450Z,21.80
2022-08-23T03:51:32.847Z,21.70
2022-08-23T03:54:01.362Z,21.70
2022-08-23T03:56:32.610Z,21.70
2022-08-23T03:59:02.159Z,21.70
2022-08-23T04:01:30.195Z,21.70
2022-08-23T04:03:59.731Z,21.70
2022-08-23T04:06:28.116Z,21.70
2022-08-23T04:08:56.571Z,21.70
2022-08-23T04:11:25.360Z,21.60
2022-08-23T04:13:54.948Z,21.60
2022-08-23T04:16:23.230Z,21.60
2022-08-23T04:18:51.302Z,21.60
2022-08-23T04:21:22.421Z,21.60
2022-08-23T04:23:50.959Z,21.60
2022-08-23T04:26:19.037Z,21.50
2022-08-23T04:28:48.321Z,21.50
2022-08-23T04:31:19.355Z,21.50
2022-08-23T04:33:52.442Z,21.50
2022-08-23T04:36:20.939Z,21.50
2022-08-23T04:38:51.752Z,21.40
2022-08-23T04:41:37.905Z,21.40
2022-08-23T04:44:06.235Z,21.40
2022-08-23T04:46:35.627Z,21.40
2022-08-23T04:49:03.684Z,21.40
2022-08-23T04:51:31.680Z,21.30
2022-08-23T04:53:59.630Z,21.40
2022-08-23T04:56:28.318Z,21.40
2022-08-23T04:58:56.600Z,21.30
2022-08-23T05:01:25.580Z,21.30
2022-08-23T05:03:55.899Z,21.30
2022-08-23T05:06:24.322Z,21.30
2022-08-23T05:08:53.106Z,21.30
2022-08-23T05:11:25.973Z,21.30
2022-08-23T05:13:58.753Z,21.30
2022-08-23T05:16:28.863Z,21.30
2022-08-23T05:18:58.444Z,21.30
2022-08-23T05:21:29.865Z,21.30
2022-08-23T05:23:57.831Z,21.30
2022-08-23T05:26:28.537Z,21.30
2022-08-23T05:28:59.666Z,21.40
2022-08-23T05:31:33.123Z,21.40
2022-08-23T05:34:02.614Z,21.50
2022-08-23T05:36:35.834Z,21.40
2022-08-23T05:39:03.772Z,21.40
2022-08-23T05:41:38.448Z,21.40
2022-08-23T05:44:13.960Z,21.40
2022-08-23T05:46:43.489Z,21.40
2022-08-23T05:49:13.157Z,21.50
2022-08-23T05:51:43.852Z,21.50
2022-08-23T05:54:14.015Z,21.50
2022-08-23T05:56:45.233Z,21.50
2022-08-23T05:59:17.176Z,21.60
2022-08-23T06:01:45.616Z,21.60
2022-08-23T06:04:16.151Z,21.60
2022-08-23T06:06:44.802Z,21.60
2022-08-23T06:09:19.498Z,21.60
2022-08-23T06:11:48.662Z,21.60
2022-08-23T06:14:17.267Z,21.60
2022-08-23T06:16:47.692Z,21.60
2022-08-23T06:19:18.537Z,21.70
2022-08-23T06:22:02.053Z,21.70
2022-08-23T06:24:32.067Z,21.70
2022-08-23T06:27:00.022Z,21.70
2022-08-23T06:29:27.990Z,21.70
2022-08-23T06:31:56.482Z,21.70
2022-08-23T06:34:29.264Z,21.70
2022-08-23T06:37:00.067Z,21.70
2022-08-23T06:39:33.432Z,21.70
2022-08-23T06:42:17.655Z,21.70
2022-08-23T06:44:55.697Z,21.70
2022-08-23T06:47:24.007Z,21.70
2022-08-23T06:49:57.835Z,21.70
2022-08-23T06:52:27.214Z,21.70
2022-08-23T06:54:55.532Z,21.80
2022-08-23T06:57:25.564Z,21.80
2022-08-23T06:59:53.506Z,21.90
2022-08-23T07:02:21.536Z,21.90
2022-08-23T07:04:54.079Z,22.00
2022-08-23T07:07:23.587Z,22.00
2022-08-23T07:09:52.891Z,22.00
2022-08-23T07:12:22.012Z,22.00
2022-08-23T07:14:50.062Z,22.00
2022-08-23T07:17:18.008Z,22.00
2022-08-23T07:19:46.386Z,22.00
2022-08-23T07:22:15.635Z,22.00
2022-08-23T07:24:45.820Z,22.00
2022-08-23T07:27:13.844Z,22.00
2022-08-23T07:29:42.105Z,22.10
2022-08-23T07:32:11.122Z,22.10
2022-08-23T07:34:39.050Z,22.20
2022-08-23T07:37:11.592Z,22.20
2022-08-23T07:39:45.927Z,22.30
2022-08-23T07:42:23.386Z,22.40
2022-08-23T07:44:52.718Z,22.40
2022-08-23T07:47:21.848Z,22.50
2022-08-23T07:49:49.802Z,22.50
2022-08-23T07:52:17.808Z,22.60
2022-08-23T07:54:48.467Z,22.70
2022-08-23T07:57:17.669Z,22.70
2022-08-23T07:59:45.896Z,22.80
2022-08-23T08:02:14.023Z,22.80
2022-08-23T08:04:42.157Z,22.90
2022-08-23T08:07:19.231Z,23.00
2022-08-23T08:09:50.359Z,23.00
2022-08-23T08:12:18.401Z,23.10
2022-08-23T08:14:48.123Z,23.10
2022-08-23T08:17:17.070Z,23.20
2022-08-23T08:19:45.686Z,23.20
2022-08-23T08:22:13.893Z,23.30
2022-08-23T08:24:42.035Z,23.50
2022-08-23T08:27:11.470Z,23.40
2022-08-23T08:29:39.435Z,23.40
2022-08-23T08:32:08.913Z,23.50
2022-08-23T08:34:42.041Z,23.60
2022-08-23T08:37:10.055Z,23.70
2022-08-23T08:39:45.288Z,23.80
2022-08-23T08:42:38.284Z,23.80
2022-08-23T08:45:11.513Z,23.90
2022-08-23T08:47:47.814Z,24.00
2022-08-23T08:50:23.984Z,24.10
2022-08-23T08:52:56.212Z,24.20
2022-08-23T08:55:28.290Z,24.30
2022-08-23T08:57:57.736Z,24.40
2022-08-23T09:00:28.145Z,24.50
2022-08-23T09:02:59.320Z,24.60
2022-08-23T09:05:31.681Z,24.70
2022-08-23T09:08:12.718Z,24.70
2022-08-23T09:10:54.404Z,24.70
2022-08-23T09:13:45.898Z,24.90
2022-08-23T09:16:24.622Z,25.00
2022-08-23T09:18:54.502Z,25.10
2022-08-23T09:21:23.105Z,25.20
2022-08-23T09:24:00.243Z,25.30
2022-08-23T09:26:31.688Z,25.40
2022-08-23T09:29:06.016Z,25.50
2022-08-23T09:31:39.468Z,25.60
2022-08-23T09:34:07.859Z,25.70
2022-08-23T09:36:38.358Z,25.80
2022-08-23T09:39:09.039Z,25.90
2022-08-23T09:41:38.911Z,26.00
2022-08-23T09:44:13.302Z,26.10
2022-08-23T09:46:42.805Z,26.20
2022-08-23T09:49:26.212Z,26.30
2022-08-23T09:51:56.452Z,26.40
2022-08-23T09:54:30.716Z,26.40
2022-08-23T09:57:02.548Z,26.40
2022-08-23T09:59:41.210Z,26.50
2022-08-23T10:02:17.278Z,26.60
2022-08-23T10:04:48.412Z,26.80
2022-08-23T10:07:27.034Z,26.90
2022-08-23T10:09:55.463Z,27.00
2022-08-23T10:12:23.430Z,27.00
2022-08-23T10:14:54.490Z,27.10
2022-08-23T10:17:34.158Z,27.30
2022-08-23T10:20:14.792Z,27.40
2022-08-23T10:22:46.783Z,27.50
2022-08-23T10:25:22.419Z,27.60
2022-08-23T10:28:16.557Z,27.80
2022-08-23T10:30:54.323Z,27.90
2022-08-23T10:33:30.510Z,28.00
2022-08-23T10:36:08.485Z,28.10
2022-08-23T10:38:41.702Z,28.30
2022-08-23T10:41:32.983Z,28.40
2022-08-23T10:44:11.645Z,28.60
2022-08-23T10:46:47.928Z,28.70
2022-08-23T10:49:17.166Z,28.80
2022-08-23T10:51:48.756Z,28.90
2022-08-23T10:54:34.363Z,29.10
2022-08-23T10:57:03.887Z,29.10
2022-08-23T10:59:35.833Z,29.30
2022-08-23T11:02:17.135Z,29.40
2022-08-23T11:04:53.005Z,29.50
2022-08-23T11:07:26.784Z,29.60
2022-08-23T11:09:59.287Z,29.70
2022-08-23T11:12:34.084Z,29.80
2022-08-23T11:15:19.101Z,29.90
2022-08-23T11:18:07.873Z,30.00
2022-08-23T11:21:12.422Z,30.20
2022-08-23T11:23:54.340Z,30.40
2022-08-23T11:26:55.787Z,30.60
2022-08-23T11:29:31.838Z,30.80
2022-08-23T11:32:06.571Z,30.90
2022-08-23T11:34:47.323Z,31.00
2022-08-23T11:37:29.912Z,31.20
2022-08-23T11:40:10.533Z,31.30
2022-08-23T11:42:51.197Z,31.50
2022-08-23T11:45:29.686Z,31.70
2022-08-23T11:48:13.702Z,31.90
2022-08-23T11:51:02.862Z,32.10
2022-08-23T11:53:50.470Z,32.40
2022-08-23T11:56:48.818Z,32.60
2022-08-23T11:59:38.445Z,32.60
2022-08-23T12:02:33.502Z,32.90
2022-08-23T12:05:06.724Z,33.20
2022-08-23T12:07:52.257Z,33.30
2022-08-23T12:10:45.244Z,33.40
2022-08-23T12:13:46.539Z,33.50
2022-08-23T12:16:32.905Z,33.80
2022-08-23T12:19:06.650Z,34.10
2022-08-23T12:21:46.209Z,34.20
2022-08-23T12:24:32.350Z,34.40
2022-08-23T12:27:09.637Z,34.50
2022-08-23T12:29:56.677Z,34.60
2022-08-23T12:32:31.883Z,34.80
2022-08-23T12:35:18.861Z,34.90
2022-08-23T12:37:52.111Z,34.90
2022-08-23T12:40:31.338Z,34.90
2022-08-23T12:43:06.176Z,35.00
2022-08-23T12:45:39.446Z,35.00
2022-08-23T12:48:10.393Z,35.30
2022-08-23T12:50:40.665Z,35.60
2022-08-23T12:53:10.633Z,35.90
2022-08-23T12:55:45.265Z,35.90
2022-08-23T12:58:15.244Z,35.60
2022-08-23T13:00:52.660Z,35.60
2022-08-23T13:03:25.059Z,35.50
2022-08-23T13:05:57.526Z,35.40
2022-08-23T13:08:34.373Z,35.50
2022-08-23T13:11:08.306Z,35.60
2022-08-23T13:13:39.814Z,35.60
2022-08-23T13:16:28.472Z,35.70
2022-08-23T13:19:11.048Z,35.90
2022-08-23T13:21:39.717Z,36.00
2022-08-23T13:24:38.680Z,36.10
2022-08-23T13:27:23.219Z,36.20
2022-08-23T13:29:58.182Z,36.30
2022-08-23T13:32:39.572Z,36.20
2022-08-23T13:36:00.641Z,36.30
2022-08-23T13:38:33.039Z,36.40
2022-08-23T13:41:04.055Z,36.40
2022-08-23T13:43:38.383Z,36.20
2022-08-23T13:46:22.575Z,36.10
2022-08-23T13:49:17.296Z,36.00
2022-08-23T13:52:37.955Z,35.90
2022-08-23T13:54:55.498Z,35.90
2022-08-23T13:57:26.437Z,36.00
2022-08-23T13:59:59.441Z,36.00
2022-08-23T14:02:29.370Z,36.10
2022-08-23T14:05:01.785Z,36.20
2022-08-23T14:07:29.980Z,36.20
2022-08-23T14:09:58.654Z,35.90
2022-08-23T14:12:29.719Z,35.70
2022-08-23T14:15:03.392Z,35.70
2022-08-23T14:17:41.163Z,35.30
2022-08-23T14:23:12.342Z,34.70
2022-08-23T14:25:43.638Z,34.50
2022-08-23T14:28:14.483Z,34.50
2022-08-23T14:30:43.978Z,34.40
2022-08-23T14:33:11.951Z,34.30
2022-08-23T14:35:44.428Z,34.30
2022-08-23T14:38:14.206Z,34.30
2022-08-23T14:40:50.535Z,34.20
2022-08-23T14:43:21.539Z,34.10
2022-08-23T14:45:51.747Z,34.00
2022-08-23T14:48:20.083Z,33.90
2022-08-23T14:50:48.536Z,33.80
2022-08-23T14:53:19.791Z,33.80
2022-08-23T14:56:01.187Z,33.70
2022-08-23T14:58:42.401Z,33.70
2022-08-23T15:01:13.671Z,33.60
2022-08-23T15:03:42.764Z,33.60
2022-08-23T15:06:11.147Z,33.70
2022-08-23T15:08:39.973Z,33.60
2022-08-23T15:14:00.139Z,33.30
2022-08-23T15:16:29.999Z,33.20
2022-08-23T15:19:03.254Z,33.10
2022-08-23T15:21:33.549Z,33.00
2022-08-23T15:24:02.614Z,33.00
2022-08-23T15:26:36.318Z,33.00
2022-08-23T15:32:25.963Z,33.00
2022-08-23T15:34:54.046Z,32.90
2022-08-23T15:37:25.490Z,32.90
2022-08-23T15:39:56.279Z,32.90
2022-08-23T15:42:24.579Z,32.90
2022-08-23T15:44:52.547Z,32.90
2022-08-23T15:47:28.520Z,32.80
2022-08-23T15:49:58.520Z,32.80
2022-08-23T15:52:27.323Z,32.70
2022-08-23T15:54:55.448Z,32.60
2022-08-23T15:57:28.876Z,32.50
2022-08-23T15:59:56.994Z,32.40
2022-08-23T16:02:26.333Z,32.40
2022-08-23T16:04:54.274Z,32.40
2022-08-23T16:07:22.523Z,32.40
2022-08-23T16:09:53.305Z,32.30
2022-08-23T16:12:24.327Z,32.30
2022-08-23T16:14:52.550Z,32.30
2022-08-23T16:17:21.140Z,32.20
2022-08-23T16:19:54.109Z,32.10
2022-08-23T16:22:22.513Z,32.00
2022-08-23T16:24:50.587Z,32.00
2022-08-23T16:27:18.618Z,31.90
2022-08-23T16:29:46.566Z,31.90
2022-08-23T16:32:14.556Z,31.90
2022-08-23T16:34:45.383Z,31.80
2022-08-23T16:37:16.798Z,31.70
2022-08-23T16:39:45.020Z,31.70
2022-08-23T16:42:18.039Z,31.60
2022-08-23T16:44:46.011Z,31.50
2022-08-23T16:47:18.159Z,31.50
2022-08-23T16:49:46.143Z,31.50
2022-08-23T16:52:18.372Z,31.40
2022-08-23T16:55:11.426Z,31.40
2022-08-23T16:57:42.773Z,31.30
2022-08-23T17:00:15.240Z,31.20
2022-08-23T17:02:44.468Z,31.10
2022-08-23T17:05:17.892Z,31.00
2022-08-23T17:07:47.996Z,30.90
2022-08-23T17:10:21.091Z,30.80
2022-08-23T17:12:54.911Z,30.80
2022-08-23T17:15:26.188Z,30.70
2022-08-23T17:17:57.047Z,30.70
2022-08-23T17:20:30.140Z,30.60
2022-08-23T17:22:59.570Z,30.50
2022-08-23T17:25:28.216Z,30.50
2022-08-23T17:27:58.897Z,30.50
2022-08-23T17:30:29.901Z,30.50
2022-08-23T17:32:58.904Z,30.40
2022-08-23T17:35:34.034Z,30.30
2022-08-23T17:38:05.522Z,30.20
2022-08-23T17:40:36.510Z,30.20
2022-08-23T17:43:05.732Z,30.10
2022-08-23T17:45:39.507Z,30.10
2022-08-23T17:48:07.555Z,30.10
2022-08-23T17:50:35.811Z,30.00
2022-08-23T17:53:05.666Z,29.90
2022-08-23T17:55:35.902Z,29.90
2022-08-23T17:58:04.384Z,29.90
2022-08-23T18:00:33.715Z,29.80
2022-08-23T18:03:02.081Z,29.80
2022-08-23T18:05:33.108Z,29.70
2022-08-23T18:08:01.577Z,29.60
2022-08-23T18:10:31.141Z,29.60
2022-08-23T18:12:59.224Z,29.60
2022-08-23T18:15:28.679Z,29.50
2022-08-23T18:18:00.542Z,29.50
2022-08-23T18:20:29.596Z,29.40
2022-08-23T18:22:58.966Z,29.30
2022-08-23T18:25:27.334Z,29.30
2022-08-23T18:28:09.138Z,29.20
2022-08-23T18:30:39.394Z,29.20
2022-08-23T18:33:07.658Z,29.10
2022-08-23T18:35:41.461Z,29.00
2022-08-23T18:38:10.030Z,28.90
2022-08-23T18:40:45.306Z,28.90
2022-08-23T18:43:17.172Z,28.80
2022-08-23T18:45:45.994Z,28.70
2022-08-23T18:48:14.049Z,28.70
2022-08-23T18:50:43.484Z,28.60
2022-08-23T18:53:12.728Z,28.50
2022-08-23T18:55:40.891Z,28.50
2022-08-23T18:58:09.251Z,28.50
2022-08-23T19:00:39.459Z,28.40
2022-08-23T19:03:08.648Z,28.40
2022-08-23T19:05:41.772Z,28.30
2022-08-23T19:08:11.258Z,28.30
2022-08-23T19:10:40.138Z,28.20
2022-08-23T19:13:08.922Z,28.20
2022-08-23T19:15:40.167Z,28.20
2022-08-23T19:18:08.396Z,28.20
2022-08-23T19:20:38.796Z,28.10
2022-08-23T19:23:07.479Z,28.10
2022-08-23T19:25:38.279Z,28.00
2022-08-23T19:28:08.830Z,28.00
2022-08-23T19:30:40.579Z,28.00
2022-08-23T19:33:10.209Z,28.00
2022-08-23T19:35:38.228Z,28.00
2022-08-23T19:38:13.697Z,28.00
2022-08-23T19:40:42.384Z,27.90
2022-08-23T19:43:11.078Z,27.90
2022-08-23T19:45:40.558Z,27.80
2022-08-23T19:48:08.560Z,27.70
2022-08-23T19:50:36.934Z,27.70
2022-08-23T19:53:05.683Z,27.60
2022-08-23T19:55:34.452Z,27.60
2022-08-23T19:58:02.419Z,27.50
2022-08-23T20:00:31.509Z,27.50
2022-08-23T20:03:01.111Z,27.50
2022-08-23T20:05:29.319Z,27.40
2022-08-23T20:07:57.541Z,27.40
2022-08-23T20:10:25.517Z,27.30
2022-08-23T20:12:53.599Z,27.30
2022-08-23T20:15:22.309Z,27.20
2022-08-23T20:17:50.219Z,27.20
2022-08-23T20:20:19.716Z,27.20
2022-08-23T20:23:05.434Z,27.20
2022-08-23T20:25:33.848Z,27.20
2022-08-23T20:28:04.993Z,27.20
2022-08-23T20:30:33.284Z,27.20
2022-08-23T20:33:01.368Z,27.20
2022-08-23T20:35:30.772Z,27.20
2022-08-23T20:37:59.145Z,27.10
2022-08-23T20:40:27.205Z,27.10
2022-08-23T20:43:04.417Z,27.10
2022-08-23T20:45:40.000Z,27.10
2022-08-23T20:48:37.354Z,27.00
2022-08-23T20:51:16.840Z,27.00
2022-08-23T20:53:55.089Z,26.90
2022-08-23T20:56:25.479Z,26.80
2022-08-23T20:58:54.143Z,26.80
2022-08-23T21:01:25.007Z,26.80
2022-08-23T21:03:55.358Z,26.70
2022-08-23T21:06:29.115Z,26.70
2022-08-23T21:09:29.068Z,26.70
2022-08-23T21:12:06.385Z,26.70
2022-08-23T21:15:08.940Z,26.60
2022-08-23T21:17:41.654Z,26.60
2022-08-23T21:20:20.435Z,26.60
2022-08-23T21:22:54.772Z,26.50
2022-08-23T21:25:23.457Z,26.50
2022-08-23T21:28:05.420Z,26.40
2022-08-23T21:30:37.924Z,26.40
2022-08-23T21:33:07.699Z,26.40
2022-08-23T21:35:37.911Z,26.30
2022-08-23T21:38:07.246Z,26.30
2022-08-23T21:40:35.261Z,26.30
2022-08-23T21:43:03.568Z,26.20
2022-08-23T21:45:31.770Z,26.20
2022-08-23T21:48:01.368Z,26.20
2022-08-23T21:50:29.516Z,26.20
2022-08-23T21:52:57.422Z,26.20
2022-08-23T21:55:31.730Z,26.20
2022-08-23T21:58:05.214Z,26.10
2022-08-23T22:00:33.552Z,26.10
2022-08-23T22:03:02.011Z,26.00
2022-08-23T22:05:30.560Z,26.10
2022-08-23T22:07:58.596Z,26.00
2022-08-23T22:10:28.310Z,26.00
2022-08-23T22:12:56.247Z,25.90
2022-08-23T22:15:25.820Z,25.90
2022-08-23T22:17:53.811Z,25.80
2022-08-23T22:20:21.988Z,25.80
2022-08-23T22:22:50.232Z,25.80
2022-08-23T22:25:18.534Z,25.70
2022-08-23T22:27:47.980Z,25.70
2022-08-23T22:30:16.748Z,25.70
2022-08-23T22:32:45.470Z,25.70
2022-08-23T22:35:14.622Z,25.60
2022-08-23T22:38:03.608Z,25.60
2022-08-23T22:40:33.180Z,25.60
2022-08-23T22:43:02.667Z,25.50
2022-08-23T22:45:30.665Z,25.50
2022-08-23T22:47:58.613Z,25.50
2022-08-23T22:50:26.654Z,25.50
2022-08-23T22:52:54.562Z,25.50
2022-08-23T22:55:22.725Z,25.40
2022-08-23T22:57:50.716Z,25.40
2022-08-23T23:00:20.188Z,25.30
2022-08-23T23:02:48.152Z,25.30
2022-08-23T23:05:16.179Z,25.30
2022-08-23T23:08:01.643Z,25.30
2022-08-23T23:10:30.019Z,25.30
2022-08-23T23:12:57.995Z,25.30
2022-08-23T23:15:27.393Z,25.30
2022-08-23T23:17:55.434Z,25.20
2022-08-23T23:20:39.307Z,25.20
2022-08-23T23:23:08.179Z,25.20
2022-08-23T23:25:36.811Z,25.20
2022-08-23T23:28:06.044Z,25.20
2022-08-23T23:30:36.063Z,25.10
2022-08-23T23:33:04.625Z,25.10
2022-08-23T23:35:32.939Z,25.10
2022-08-23T23:38:01.065Z,25.00
2022-08-23T23:40:29.560Z,25.00
2022-08-23T23:42:57.701Z,25.00
2022-08-23T23:45:25.783Z,25.00
2022-08-23T23:47:55.322Z,24.90
2022-08-23T23:50:23.977Z,24.90
2022-08-23T23:52:52.259Z,24.90
2022-08-23T23:55:22.622Z,24.90
2022-08-23T23:57:50.882Z,24.90
